sensor_id;sensor_type;location;lat;lon;timestamp;P1;durP1;ratioP1;P2;durP2;ratioP2
71941;SDS011;59997;53.300;-6.260;2022-12-08T00:02:03;11.85;;;4.70;;
71941;SDS011;59997;53.300;-6.260;2022-12-08T00:04:30;14.00;;;5.20;;
71941;SDS011;59997;53.300;-6.260;2022-12-08T00:07:15;15.30;;;5.43;;
71941;SDS011;59997;53.300;-6.260;2022-12-08T00:10:00;11.13;;;4.78;;
71941;SDS011;59997;53.300;-6.260;2022-12-08T00:12:26;15.33;;;4.90;;
71941;SDS011;59997;53.300;-6.260;2022-12-08T00:14:52;12.85;;;5.30;;
71941;SDS011;59997;53.300;-6.260;2022-12-08T00:17:19;13.32;;;5.40;;
71941;SDS011;59997;53.300;-6.260;2022-12-08T00:19:45;18.63;;;5.53;;
71941;SDS011;59997;53.300;-6.260;2022-12-08T00:22:11;16.48;;;5.60;;
71941;SDS011;59997;53.300;-6.260;2022-12-08T00:24:39;15.23;;;5.05;;
71941;SDS011;59997;53.300;-6.260;2022-12-08T00:27:06;12.20;;;4.32;;
71941;SDS011;59997;53.300;-6.260;2022-12-08T00:29:34;12.00;;;3.95;;
71941;SDS011;59997;53.300;-6.260;2022-12-08T00:32:01;18.67;;;5.07;;
71941;SDS011;59997;53.300;-6.260;2022-12-08T00:34:29;13.60;;;4.50;;
71941;SDS011;59997;53.300;-6.260;2022-12-08T00:36:55;12.35;;;4.20;;
71941;SDS011;59997;53.300;-6.260;2022-12-08T00:39:21;16.27;;;5.27;;
71941;SDS011;59997;53.300;-6.260;2022-12-08T00:41:47;11.55;;;3.88;;
71941;SDS011;59997;53.300;-6.260;2022-12-08T00:44:32;10.07;;;3.80;;
71941;SDS011;59997;53.300;-6.260;2022-12-08T00:46:57;13.32;;;4.78;;
71941;SDS011;59997;53.300;-6.260;2022-12-08T00:49:23;12.02;;;4.38;;
71941;SDS011;59997;53.300;-6.260;2022-12-08T00:51:49;17.57;;;6.57;;
71941;SDS011;59997;53.300;-6.260;2022-12-08T00:54:14;12.98;;;5.15;;
71941;SDS011;59997;53.300;-6.260;2022-12-08T00:56:42;13.45;;;4.90;;
71941;SDS011;59997;53.300;-6.260;2022-12-08T00:59:08;12.43;;;5.18;;
71941;SDS011;59997;53.300;-6.260;2022-12-08T01:01:34;12.10;;;4.70;;
71941;SDS011;59997;53.300;-6.260;2022-12-08T01:04:07;12.65;;;4.80;;
71941;SDS011;59997;53.300;-6.260;2022-12-08T01:06:36;13.43;;;5.38;;
71941;SDS011;59997;53.300;-6.260;2022-12-08T01:09:05;13.60;;;5.10;;
71941;SDS011;59997;53.300;-6.260;2022-12-08T01:11:33;11.57;;;4.73;;
71941;SDS011;59997;53.300;-6.260;2022-12-08T01:13:59;11.40;;;4.10;;
71941;SDS011;59997;53.300;-6.260;2022-12-08T01:16:26;11.75;;;5.18;;
71941;SDS011;59997;53.300;-6.260;2022-12-08T01:18:54;11.47;;;4.63;;
71941;SDS011;59997;53.300;-6.260;2022-12-08T01:21:22;11.95;;;4.50;;
71941;SDS011;59997;53.300;-6.260;2022-12-08T01:23:48;14.25;;;5.22;;
71941;SDS011;59997;53.300;-6.260;2022-12-08T01:26:14;13.35;;;4.63;;
71941;SDS011;59997;53.300;-6.260;2022-12-08T01:28:42;15.48;;;5.32;;
71941;SDS011;59997;53.300;-6.260;2022-12-08T01:31:13;14.57;;;4.93;;
71941;SDS011;59997;53.300;-6.260;2022-12-08T01:33:42;11.23;;;4.53;;
71941;SDS011;59997;53.300;-6.260;2022-12-08T01:36:08;14.18;;;4.38;;
71941;SDS011;59997;53.300;-6.260;2022-12-08T01:38:53;12.20;;;4.15;;
71941;SDS011;59997;53.300;-6.260;2022-12-08T01:41:23;14.07;;;5.70;;
71941;SDS011;59997;53.300;-6.260;2022-12-08T01:46:50;11.73;;;4.10;;
71941;SDS011;59997;53.300;-6.260;2022-12-08T01:49:28;14.95;;;4.43;;
71941;SDS011;59997;53.300;-6.260;2022-12-08T01:51:57;11.50;;;3.95;;
71941;SDS011;59997;53.300;-6.260;2022-12-08T01:54:57;15.90;;;4.10;;
71941;SDS011;59997;53.300;-6.260;2022-12-08T01:57:50;11.30;;;4.53;;
71941;SDS011;59997;53.300;-6.260;2022-12-08T02:00:21;9.90;;;4.22;;
71941;SDS011;59997;53.300;-6.260;2022-12-08T02:02:52;10.63;;;3.65;;
71941;SDS011;59997;53.300;-6.260;2022-12-08T02:05:22;11.30;;;4.07;;
71941;SDS011;59997;53.300;-6.260;2022-12-08T02:07:51;11.65;;;4.38;;
71941;SDS011;59997;53.300;-6.260;2022-12-08T02:10:19;12.53;;;3.77;;
71941;SDS011;59997;53.300;-6.260;2022-12-08T02:12:47;11.05;;;3.30;;
71941;SDS011;59997;53.300;-6.260;2022-12-08T02:15:16;13.63;;;3.88;;
71941;SDS011;59997;53.300;-6.260;2022-12-08T02:17:53;11.93;;;4.07;;
71941;SDS011;59997;53.300;-6.260;2022-12-08T02:21:02;11.45;;;3.80;;
71941;SDS011;59997;53.300;-6.260;2022-12-08T02:23:37;11.43;;;3.90;;
71941;SDS011;59997;53.300;-6.260;2022-12-08T02:44:18;8.60;;;3.25;;
71941;SDS011;59997;53.300;-6.260;2022-12-08T02:46:58;14.25;;;3.95;;
71941;SDS011;59997;53.300;-6.260;2022-12-08T02:49:34;10.15;;;3.20;;
71941;SDS011;59997;53.300;-6.260;2022-12-08T02:54:52;11.30;;;3.50;;
71941;SDS011;59997;53.300;-6.260;2022-12-08T03:00:21;11.77;;;3.40;;
71941;SDS011;59997;53.300;-6.260;2022-12-08T03:08:07;14.23;;;3.92;;
71941;SDS011;59997;53.300;-6.260;2022-12-08T03:10:41;12.18;;;3.63;;
71941;SDS011;59997;53.300;-6.260;2022-12-08T03:13:12;14.20;;;4.10;;
71941;SDS011;59997;53.300;-6.260;2022-12-08T03:15:44;13.43;;;4.50;;
71941;SDS011;59997;53.300;-6.260;2022-12-08T03:18:13;12.48;;;4.07;;
71941;SDS011;59997;53.300;-6.260;2022-12-08T03:20:42;16.40;;;3.50;;
71941;SDS011;59997;53.300;-6.260;2022-12-08T03:23:10;14.00;;;4.10;;
71941;SDS011;59997;53.300;-6.260;2022-12-08T03:25:40;11.15;;;4.03;;
71941;SDS011;59997;53.300;-6.260;2022-12-08T03:28:12;8.93;;;3.38;;
71941;SDS011;59997;53.300;-6.260;2022-12-08T03:30:39;12.52;;;4.05;;
71941;SDS011;59997;53.300;-6.260;2022-12-08T03:33:17;12.18;;;3.97;;
71941;SDS011;59997;53.300;-6.260;2022-12-08T03:35:50;14.73;;;3.90;;
71941;SDS011;59997;53.300;-6.260;2022-12-08T03:38:17;9.87;;;3.83;;
71941;SDS011;59997;53.300;-6.260;2022-12-08T03:40:43;13.57;;;3.90;;
71941;SDS011;59997;53.300;-6.260;2022-12-08T03:43:29;9.77;;;3.22;;
71941;SDS011;59997;53.300;-6.260;2022-12-08T03:45:55;12.13;;;3.50;;
71941;SDS011;59997;53.300;-6.260;2022-12-08T03:48:21;15.95;;;4.65;;
71941;SDS011;59997;53.300;-6.260;2022-12-08T03:50:50;12.38;;;3.90;;
71941;SDS011;59997;53.300;-6.260;2022-12-08T03:53:15;13.30;;;3.63;;
71941;SDS011;59997;53.300;-6.260;2022-12-08T03:55:42;10.50;;;3.08;;
71941;SDS011;59997;53.300;-6.260;2022-12-08T03:58:08;13.20;;;4.03;;
71941;SDS011;59997;53.300;-6.260;2022-12-08T04:00:34;11.77;;;3.63;;
71941;SDS011;59997;53.300;-6.260;2022-12-08T04:03:01;12.40;;;3.20;;
71941;SDS011;59997;53.300;-6.260;2022-12-08T04:05:28;12.82;;;4.15;;
71941;SDS011;59997;53.300;-6.260;2022-12-08T04:07:59;10.87;;;3.40;;
71941;SDS011;59997;53.300;-6.260;2022-12-08T04:10:28;8.55;;;2.95;;
71941;SDS011;59997;53.300;-6.260;2022-12-08T04:12:54;9.40;;;2.75;;
71941;SDS011;59997;53.300;-6.260;2022-12-08T04:15:20;13.38;;;3.30;;
71941;SDS011;59997;53.300;-6.260;2022-12-08T04:17:46;13.47;;;3.70;;
71941;SDS011;59997;53.300;-6.260;2022-12-08T04:20:12;8.82;;;3.10;;
71941;SDS011;59997;53.300;-6.260;2022-12-08T04:22:37;10.33;;;3.13;;
71941;SDS011;59997;53.300;-6.260;2022-12-08T04:25:04;9.27;;;2.87;;
71941;SDS011;59997;53.300;-6.260;2022-12-08T04:27:32;9.75;;;2.60;;
71941;SDS011;59997;53.300;-6.260;2022-12-08T04:29:58;13.07;;;2.60;;
71941;SDS011;59997;53.300;-6.260;2022-12-08T04:32:24;10.88;;;3.33;;
71941;SDS011;59997;53.300;-6.260;2022-12-08T04:34:50;13.85;;;3.45;;
71941;SDS011;59997;53.300;-6.260;2022-12-08T04:37:16;11.40;;;2.88;;
71941;SDS011;59997;53.300;-6.260;2022-12-08T04:39:41;10.20;;;3.13;;
71941;SDS011;59997;53.300;-6.260;2022-12-08T04:42:07;11.63;;;2.90;;
71941;SDS011;59997;53.300;-6.260;2022-12-08T04:44:32;10.88;;;2.80;;
71941;SDS011;59997;53.300;-6.260;2022-12-08T04:46:59;11.18;;;2.75;;
71941;SDS011;59997;53.300;-6.260;2022-12-08T04:49:25;11.77;;;3.13;;
71941;SDS011;59997;53.300;-6.260;2022-12-08T04:51:51;9.70;;;2.30;;
71941;SDS011;59997;53.300;-6.260;2022-12-08T04:54:17;11.73;;;3.10;;
71941;SDS011;59997;53.300;-6.260;2022-12-08T04:56:43;9.48;;;2.47;;
71941;SDS011;59997;53.300;-6.260;2022-12-08T04:59:08;15.43;;;3.13;;
71941;SDS011;59997;53.300;-6.260;2022-12-08T05:01:36;8.35;;;2.25;;
71941;SDS011;59997;53.300;-6.260;2022-12-08T05:04:01;9.97;;;2.90;;
71941;SDS011;59997;53.300;-6.260;2022-12-08T05:06:28;7.25;;;2.28;;
71941;SDS011;59997;53.300;-6.260;2022-12-08T05:08:55;8.00;;;2.88;;
71941;SDS011;59997;53.300;-6.260;2022-12-08T05:11:21;7.63;;;2.28;;
71941;SDS011;59997;53.300;-6.260;2022-12-08T05:13:50;10.25;;;2.28;;
71941;SDS011;59997;53.300;-6.260;2022-12-08T05:16:15;9.65;;;2.70;;
71941;SDS011;59997;53.300;-6.260;2022-12-08T05:18:41;9.18;;;2.38;;
71941;SDS011;59997;53.300;-6.260;2022-12-08T05:21:07;9.73;;;1.93;;
71941;SDS011;59997;53.300;-6.260;2022-12-08T05:23:33;13.93;;;2.17;;
71941;SDS011;59997;53.300;-6.260;2022-12-08T05:26:00;9.45;;;2.10;;
71941;SDS011;59997;53.300;-6.260;2022-12-08T05:28:26;9.47;;;2.30;;
71941;SDS011;59997;53.300;-6.260;2022-12-08T05:30:52;8.07;;;2.33;;
71941;SDS011;59997;53.300;-6.260;2022-12-08T05:33:17;8.93;;;2.70;;
71941;SDS011;59997;53.300;-6.260;2022-12-08T05:35:45;9.23;;;2.63;;
71941;SDS011;59997;53.300;-6.260;2022-12-08T05:38:14;10.60;;;3.13;;
71941;SDS011;59997;53.300;-6.260;2022-12-08T05:40:40;10.00;;;2.55;;
71941;SDS011;59997;53.300;-6.260;2022-12-08T05:43:08;9.88;;;2.80;;
71941;SDS011;59997;53.300;-6.260;2022-12-08T05:45:34;10.80;;;2.78;;
71941;SDS011;59997;53.300;-6.260;2022-12-08T05:48:01;11.07;;;2.92;;
71941;SDS011;59997;53.300;-6.260;2022-12-08T05:50:27;13.65;;;2.92;;
71941;SDS011;59997;53.300;-6.260;2022-12-08T05:52:54;13.10;;;3.07;;
71941;SDS011;59997;53.300;-6.260;2022-12-08T05:55:20;8.77;;;2.40;;
71941;SDS011;59997;53.300;-6.260;2022-12-08T05:57:46;15.77;;;3.10;;
71941;SDS011;59997;53.300;-6.260;2022-12-08T06:00:13;9.73;;;2.63;;
71941;SDS011;59997;53.300;-6.260;2022-12-08T06:02:40;10.68;;;3.63;;
71941;SDS011;59997;53.300;-6.260;2022-12-08T06:05:06;9.43;;;3.00;;
71941;SDS011;59997;53.300;-6.260;2022-12-08T06:07:32;11.70;;;3.10;;
71941;SDS011;59997;53.300;-6.260;2022-12-08T06:09:59;11.05;;;3.30;;
71941;SDS011;59997;53.300;-6.260;2022-12-08T06:12:26;12.50;;;3.40;;
71941;SDS011;59997;53.300;-6.260;2022-12-08T06:14:52;10.60;;;3.25;;
71941;SDS011;59997;53.300;-6.260;2022-12-08T06:17:18;9.02;;;3.10;;
71941;SDS011;59997;53.300;-6.260;2022-12-08T06:19:45;10.85;;;3.25;;
71941;SDS011;59997;53.300;-6.260;2022-12-08T06:22:11;10.43;;;3.17;;
71941;SDS011;59997;53.300;-6.260;2022-12-08T06:24:37;10.85;;;3.30;;
71941;SDS011;59997;53.300;-6.260;2022-12-08T06:27:03;12.48;;;3.35;;
71941;SDS011;59997;53.300;-6.260;2022-12-08T06:29:29;10.55;;;2.97;;
71941;SDS011;59997;53.300;-6.260;2022-12-08T06:31:54;11.80;;;3.10;;
71941;SDS011;59997;53.300;-6.260;2022-12-08T06:34:20;9.03;;;3.10;;
71941;SDS011;59997;53.300;-6.260;2022-12-08T06:36:46;10.85;;;3.85;;
71941;SDS011;59997;53.300;-6.260;2022-12-08T06:39:12;12.52;;;3.67;;
71941;SDS011;59997;53.300;-6.260;2022-12-08T06:41:39;9.30;;;3.42;;
71941;SDS011;59997;53.300;-6.260;2022-12-08T06:44:25;14.00;;;3.92;;
71941;SDS011;59997;53.300;-6.260;2022-12-08T06:46:51;11.65;;;3.33;;
71941;SDS011;59997;53.300;-6.260;2022-12-08T06:49:17;10.38;;;3.17;;
71941;SDS011;59997;53.300;-6.260;2022-12-08T06:51:43;10.95;;;3.90;;
71941;SDS011;59997;53.300;-6.260;2022-12-08T06:54:09;9.43;;;3.47;;
71941;SDS011;59997;53.300;-6.260;2022-12-08T06:56:35;11.03;;;3.30;;
71941;SDS011;59997;53.300;-6.260;2022-12-08T06:59:02;11.15;;;3.83;;
71941;SDS011;59997;53.300;-6.260;2022-12-08T07:01:28;11.10;;;3.35;;
71941;SDS011;59997;53.300;-6.260;2022-12-08T07:03:54;11.07;;;3.90;;
71941;SDS011;59997;53.300;-6.260;2022-12-08T07:06:21;12.15;;;4.00;;
71941;SDS011;59997;53.300;-6.260;2022-12-08T07:08:48;13.23;;;4.00;;
71941;SDS011;59997;53.300;-6.260;2022-12-08T07:11:14;12.75;;;3.95;;
71941;SDS011;59997;53.300;-6.260;2022-12-08T07:13:40;10.35;;;3.55;;
71941;SDS011;59997;53.300;-6.260;2022-12-08T07:16:11;12.70;;;4.20;;
71941;SDS011;59997;53.300;-6.260;2022-12-08T07:18:37;11.77;;;3.47;;
71941;SDS011;59997;53.300;-6.260;2022-12-08T07:21:09;12.68;;;4.10;;
71941;SDS011;59997;53.300;-6.260;2022-12-08T07:23:38;15.73;;;5.50;;
71941;SDS011;59997;53.300;-6.260;2022-12-08T07:26:04;15.03;;;6.73;;
71941;SDS011;59997;53.300;-6.260;2022-12-08T07:28:33;21.00;;;7.15;;
71941;SDS011;59997;53.300;-6.260;2022-12-08T07:31:00;24.17;;;9.00;;
71941;SDS011;59997;53.300;-6.260;2022-12-08T07:33:26;22.57;;;7.50;;
71941;SDS011;59997;53.300;-6.260;2022-12-08T07:36:03;17.65;;;7.10;;
71941;SDS011;59997;53.300;-6.260;2022-12-08T07:38:32;13.75;;;4.10;;
71941;SDS011;59997;53.300;-6.260;2022-12-08T07:40:58;9.55;;;3.67;;
71941;SDS011;59997;53.300;-6.260;2022-12-08T07:43:24;11.40;;;3.53;;
71941;SDS011;59997;53.300;-6.260;2022-12-08T07:45:49;13.97;;;3.73;;
71941;SDS011;59997;53.300;-6.260;2022-12-08T07:48:16;11.27;;;3.85;;
71941;SDS011;59997;53.300;-6.260;2022-12-08T07:50:44;10.82;;;3.60;;
71941;SDS011;59997;53.300;-6.260;2022-12-08T07:53:10;14.88;;;3.35;;
71941;SDS011;59997;53.300;-6.260;2022-12-08T07:55:43;10.90;;;2.80;;
71941;SDS011;59997;53.300;-6.260;2022-12-08T07:58:09;10.48;;;3.00;;
71941;SDS011;59997;53.300;-6.260;2022-12-08T08:00:36;9.77;;;3.20;;
71941;SDS011;59997;53.300;-6.260;2022-12-08T08:03:02;13.32;;;5.90;;
71941;SDS011;59997;53.300;-6.260;2022-12-08T08:05:28;8.53;;;3.30;;
71941;SDS011;59997;53.300;-6.260;2022-12-08T08:07:54;10.50;;;2.95;;
71941;SDS011;59997;53.300;-6.260;2022-12-08T08:10:19;9.55;;;2.60;;
71941;SDS011;59997;53.300;-6.260;2022-12-08T08:12:45;11.53;;;2.80;;
71941;SDS011;59997;53.300;-6.260;2022-12-08T08:15:14;10.10;;;2.28;;
71941;SDS011;59997;53.300;-6.260;2022-12-08T08:17:40;6.88;;;2.25;;
71941;SDS011;59997;53.300;-6.260;2022-12-08T08:20:08;15.00;;;3.92;;
71941;SDS011;59997;53.300;-6.260;2022-12-08T08:22:37;12.32;;;3.05;;
71941;SDS011;59997;53.300;-6.260;2022-12-08T08:25:03;16.83;;;3.42;;
71941;SDS011;59997;53.300;-6.260;2022-12-08T08:27:34;14.20;;;3.30;;
71941;SDS011;59997;53.300;-6.260;2022-12-08T08:30:01;18.13;;;4.68;;
71941;SDS011;59997;53.300;-6.260;2022-12-08T08:32:27;29.25;;;7.05;;
71941;SDS011;59997;53.300;-6.260;2022-12-08T08:34:56;41.08;;;11.30;;
71941;SDS011;59997;53.300;-6.260;2022-12-08T08:37:22;25.17;;;6.50;;
71941;SDS011;59997;53.300;-6.260;2022-12-08T08:39:48;36.55;;;9.82;;
71941;SDS011;59997;53.300;-6.260;2022-12-08T08:42:13;30.25;;;9.38;;
71941;SDS011;59997;53.300;-6.260;2022-12-08T08:47:58;13.80;;;3.90;;
71941;SDS011;59997;53.300;-6.260;2022-12-08T08:50:24;13.60;;;2.70;;
71941;SDS011;59997;53.300;-6.260;2022-12-08T08:52:50;9.27;;;2.70;;
71941;SDS011;59997;53.300;-6.260;2022-12-08T08:55:16;7.05;;;1.77;;
71941;SDS011;59997;53.300;-6.260;2022-12-08T08:57:42;12.27;;;1.88;;
71941;SDS011;59997;53.300;-6.260;2022-12-08T09:00:08;10.00;;;2.50;;
71941;SDS011;59997;53.300;-6.260;2022-12-08T09:02:35;10.43;;;3.20;;
71941;SDS011;59997;53.300;-6.260;2022-12-08T09:05:01;21.23;;;4.10;;
71941;SDS011;59997;53.300;-6.260;2022-12-08T09:07:27;8.33;;;2.90;;
71941;SDS011;59997;53.300;-6.260;2022-12-08T09:09:52;10.20;;;3.08;;
71941;SDS011;59997;53.300;-6.260;2022-12-08T09:12:19;8.03;;;2.17;;
71941;SDS011;59997;53.300;-6.260;2022-12-08T09:14:44;8.95;;;2.85;;
71941;SDS011;59997;53.300;-6.260;2022-12-08T09:17:10;8.07;;;2.27;;
71941;SDS011;59997;53.300;-6.260;2022-12-08T09:19:35;8.83;;;2.53;;
71941;SDS011;59997;53.300;-6.260;2022-12-08T09:22:01;8.88;;;2.92;;
71941;SDS011;59997;53.300;-6.260;2022-12-08T09:24:27;11.75;;;4.07;;
71941;SDS011;59997;53.300;-6.260;2022-12-08T09:26:53;11.37;;;3.67;;
71941;SDS011;59997;53.300;-6.260;2022-12-08T09:29:18;12.97;;;4.47;;
71941;SDS011;59997;53.300;-6.260;2022-12-08T09:31:44;14.07;;;5.10;;
71941;SDS011;59997;53.300;-6.260;2022-12-08T09:34:10;12.53;;;3.97;;
71941;SDS011;59997;53.300;-6.260;2022-12-08T09:36:36;14.43;;;4.25;;
71941;SDS011;59997;53.300;-6.260;2022-12-08T09:39:02;12.63;;;4.17;;
71941;SDS011;59997;53.300;-6.260;2022-12-08T09:41:34;14.55;;;5.03;;
71941;SDS011;59997;53.300;-6.260;2022-12-08T09:47:04;9.00;;;2.72;;
71941;SDS011;59997;53.300;-6.260;2022-12-08T09:49:41;9.68;;;3.30;;
71941;SDS011;59997;53.300;-6.260;2022-12-08T09:52:17;9.32;;;2.90;;
71941;SDS011;59997;53.300;-6.260;2022-12-08T09:54:47;9.65;;;2.42;;
71941;SDS011;59997;53.300;-6.260;2022-12-08T09:57:14;8.00;;;2.90;;
71941;SDS011;59997;53.300;-6.260;2022-12-08T09:59:45;7.00;;;1.92;;
71941;SDS011;59997;53.300;-6.260;2022-12-08T10:02:26;7.78;;;2.40;;
71941;SDS011;59997;53.300;-6.260;2022-12-08T10:04:54;8.52;;;2.58;;
71941;SDS011;59997;53.300;-6.260;2022-12-08T10:18:42;7.88;;;2.22;;
71941;SDS011;59997;53.300;-6.260;2022-12-08T10:21:19;6.33;;;2.37;;
71941;SDS011;59997;53.300;-6.260;2022-12-08T10:23:56;9.05;;;2.58;;
71941;SDS011;59997;53.300;-6.260;2022-12-08T10:26:26;8.18;;;2.33;;
71941;SDS011;59997;53.300;-6.260;2022-12-08T10:28:52;8.07;;;2.33;;
71941;SDS011;59997;53.300;-6.260;2022-12-08T10:31:18;6.20;;;2.37;;
71941;SDS011;59997;53.300;-6.260;2022-12-08T10:33:48;10.73;;;3.15;;
71941;SDS011;59997;53.300;-6.260;2022-12-08T10:36:19;9.70;;;2.97;;
71941;SDS011;59997;53.300;-6.260;2022-12-08T10:38:44;8.03;;;2.40;;
71941;SDS011;59997;53.300;-6.260;2022-12-08T10:41:11;7.07;;;2.60;;
71941;SDS011;59997;53.300;-6.260;2022-12-08T10:44:12;7.97;;;2.60;;
71941;SDS011;59997;53.300;-6.260;2022-12-08T10:46:33;8.07;;;2.10;;
71941;SDS011;59997;53.300;-6.260;2022-12-08T10:51:36;6.87;;;2.10;;
71941;SDS011;59997;53.300;-6.260;2022-12-08T10:54:03;7.70;;;2.45;;
71941;SDS011;59997;53.300;-6.260;2022-12-08T10:56:30;8.43;;;2.40;;
71941;SDS011;59997;53.300;-6.260;2022-12-08T10:59:11;6.93;;;1.80;;
71941;SDS011;59997;53.300;-6.260;2022-12-08T11:01:44;10.82;;;2.38;;
71941;SDS011;59997;53.300;-6.260;2022-12-08T11:04:14;6.55;;;2.00;;
71941;SDS011;59997;53.300;-6.260;2022-12-08T11:07:00;7.90;;;2.00;;
71941;SDS011;59997;53.300;-6.260;2022-12-08T11:09:41;5.23;;;1.40;;
71941;SDS011;59997;53.300;-6.260;2022-12-08T11:12:13;8.88;;;2.42;;
71941;SDS011;59997;53.300;-6.260;2022-12-08T11:22:37;8.07;;;2.37;;
71941;SDS011;59997;53.300;-6.260;2022-12-08T11:27:39;7.47;;;2.50;;
71941;SDS011;59997;53.300;-6.260;2022-12-08T11:32:44;7.00;;;2.05;;
71941;SDS011;59997;53.300;-6.260;2022-12-08T11:35:16;9.90;;;2.37;;
71941;SDS011;59997;53.300;-6.260;2022-12-08T11:37:42;6.97;;;2.72;;
71941;SDS011;59997;53.300;-6.260;2022-12-08T11:45:31;8.52;;;1.80;;
71941;SDS011;59997;53.300;-6.260;2022-12-08T11:56:39;7.10;;;2.30;;
71941;SDS011;59997;53.300;-6.260;2022-12-08T12:01:45;9.13;;;2.15;;
71941;SDS011;59997;53.300;-6.260;2022-12-08T12:23:33;8.00;;;3.13;;
71941;SDS011;59997;53.300;-6.260;2022-12-08T12:29:20;7.37;;;2.30;;
71941;SDS011;59997;53.300;-6.260;2022-12-08T12:31:54;8.65;;;2.72;;
71941;SDS011;59997;53.300;-6.260;2022-12-08T12:34:31;11.20;;;3.10;;
71941;SDS011;59997;53.300;-6.260;2022-12-08T12:37:12;9.13;;;2.83;;
71941;SDS011;59997;53.300;-6.260;2022-12-08T12:40:16;9.27;;;3.25;;
71941;SDS011;59997;53.300;-6.260;2022-12-08T12:43:28;9.60;;;3.33;;
71941;SDS011;59997;53.300;-6.260;2022-12-08T12:45:35;8.60;;;2.67;;
71941;SDS011;59997;53.300;-6.260;2022-12-08T12:50:47;8.45;;;2.92;;
71941;SDS011;59997;53.300;-6.260;2022-12-08T13:01:45;10.67;;;3.50;;
71941;SDS011;59997;53.300;-6.260;2022-12-08T13:04:05;10.98;;;3.50;;
71941;SDS011;59997;53.300;-6.260;2022-12-08T13:06:44;9.10;;;3.33;;
71941;SDS011;59997;53.300;-6.260;2022-12-08T13:09:46;9.38;;;3.42;;
71941;SDS011;59997;53.300;-6.260;2022-12-08T13:12:10;10.98;;;3.35;;
71941;SDS011;59997;53.300;-6.260;2022-12-08T13:14:44;11.27;;;4.00;;
71941;SDS011;59997;53.300;-6.260;2022-12-08T13:17:21;10.90;;;4.47;;
71941;SDS011;59997;53.300;-6.260;2022-12-08T13:19:55;11.90;;;3.90;;
71941;SDS011;59997;53.300;-6.260;2022-12-08T13:25:45;10.50;;;3.95;;
71941;SDS011;59997;53.300;-6.260;2022-12-08T13:28:22;9.80;;;4.13;;
71941;SDS011;59997;53.300;-6.260;2022-12-08T13:30:49;13.43;;;4.82;;
71941;SDS011;59997;53.300;-6.260;2022-12-08T13:33:51;12.18;;;4.90;;
71941;SDS011;59997;53.300;-6.260;2022-12-08T13:36:13;10.43;;;3.53;;
71941;SDS011;59997;53.300;-6.260;2022-12-08T13:38:55;13.50;;;4.70;;
71941;SDS011;59997;53.300;-6.260;2022-12-08T13:41:24;14.73;;;5.43;;
71941;SDS011;59997;53.300;-6.260;2022-12-08T13:44:04;12.43;;;4.68;;
71941;SDS011;59997;53.300;-6.260;2022-12-08T13:46:50;14.57;;;5.40;;
71941;SDS011;59997;53.300;-6.260;2022-12-08T13:49:22;13.15;;;5.28;;
71941;SDS011;59997;53.300;-6.260;2022-12-08T13:51:51;14.43;;;5.53;;
71941;SDS011;59997;53.300;-6.260;2022-12-08T13:54:29;13.63;;;5.50;;
71941;SDS011;59997;53.300;-6.260;2022-12-08T13:57:00;10.75;;;3.72;;
71941;SDS011;59997;53.300;-6.260;2022-12-08T13:59:32;11.20;;;3.22;;
71941;SDS011;59997;53.300;-6.260;2022-12-08T14:02:59;10.25;;;3.13;;
71941;SDS011;59997;53.300;-6.260;2022-12-08T14:04:53;9.27;;;2.80;;
71941;SDS011;59997;53.300;-6.260;2022-12-08T14:07:20;8.50;;;2.70;;
71941;SDS011;59997;53.300;-6.260;2022-12-08T14:09:46;8.45;;;2.45;;
71941;SDS011;59997;53.300;-6.260;2022-12-08T14:12:17;10.60;;;2.50;;
71941;SDS011;59997;53.300;-6.260;2022-12-08T14:14:45;6.60;;;1.88;;
71941;SDS011;59997;53.300;-6.260;2022-12-08T14:17:16;9.90;;;2.20;;
71941;SDS011;59997;53.300;-6.260;2022-12-08T14:19:44;8.45;;;1.92;;
71941;SDS011;59997;53.300;-6.260;2022-12-08T14:22:17;7.82;;;2.42;;
71941;SDS011;59997;53.300;-6.260;2022-12-08T14:24:47;8.60;;;2.17;;
71941;SDS011;59997;53.300;-6.260;2022-12-08T14:27:17;6.47;;;1.52;;
71941;SDS011;59997;53.300;-6.260;2022-12-08T14:29:51;7.03;;;1.75;;
71941;SDS011;59997;53.300;-6.260;2022-12-08T14:37:26;5.50;;;1.17;;
71941;SDS011;59997;53.300;-6.260;2022-12-08T14:39:56;7.80;;;1.50;;
71941;SDS011;59997;53.300;-6.260;2022-12-08T14:42:26;6.10;;;0.90;;
71941;SDS011;59997;53.300;-6.260;2022-12-08T14:44:58;5.75;;;0.90;;
71941;SDS011;59997;53.300;-6.260;2022-12-08T14:47:34;4.80;;;0.90;;
71941;SDS011;59997;53.300;-6.260;2022-12-08T14:50:00;5.57;;;1.00;;
71941;SDS011;59997;53.300;-6.260;2022-12-08T14:52:27;5.55;;;1.00;;
71941;SDS011;59997;53.300;-6.260;2022-12-08T14:54:53;5.80;;;1.40;;
71941;SDS011;59997;53.300;-6.260;2022-12-08T14:57:20;6.72;;;1.40;;
71941;SDS011;59997;53.300;-6.260;2022-12-08T14:59:46;6.88;;;1.67;;
71941;SDS011;59997;53.300;-6.260;2022-12-08T15:07:23;6.97;;;1.70;;
71941;SDS011;59997;53.300;-6.260;2022-12-08T15:15:30;4.53;;;0.73;;
71941;SDS011;59997;53.300;-6.260;2022-12-08T15:18:10;5.22;;;1.15;;
71941;SDS011;59997;53.300;-6.260;2022-12-08T15:20:39;5.07;;;0.90;;
71941;SDS011;59997;53.300;-6.260;2022-12-08T15:23:27;5.45;;;1.00;;
71941;SDS011;59997;53.300;-6.260;2022-12-08T15:25:58;4.88;;;0.85;;
71941;SDS011;59997;53.300;-6.260;2022-12-08T15:28:25;4.50;;;0.60;;
71941;SDS011;59997;53.300;-6.260;2022-12-08T15:30:53;6.53;;;0.97;;
71941;SDS011;59997;53.300;-6.260;2022-12-08T15:33:19;6.80;;;1.30;;
71941;SDS011;59997;53.300;-6.260;2022-12-08T15:35:46;5.40;;;1.02;;
71941;SDS011;59997;53.300;-6.260;2022-12-08T15:38:20;6.38;;;0.90;;
71941;SDS011;59997;53.300;-6.260;2022-12-08T15:40:51;7.93;;;1.48;;
71941;SDS011;59997;53.300;-6.260;2022-12-08T15:43:17;7.40;;;2.20;;
71941;SDS011;59997;53.300;-6.260;2022-12-08T15:45:43;5.60;;;0.85;;
71941;SDS011;59997;53.300;-6.260;2022-12-08T15:48:14;7.57;;;1.13;;
71941;SDS011;59997;53.300;-6.260;2022-12-08T15:50:42;5.90;;;0.88;;
71941;SDS011;59997;53.300;-6.260;2022-12-08T15:53:08;5.00;;;0.82;;
71941;SDS011;59997;53.300;-6.260;2022-12-08T15:55:34;9.90;;;1.42;;
71941;SDS011;59997;53.300;-6.260;2022-12-08T15:58:00;4.40;;;0.90;;
71941;SDS011;59997;53.300;-6.260;2022-12-08T16:00:27;6.70;;;1.00;;
71941;SDS011;59997;53.300;-6.260;2022-12-08T16:02:54;7.45;;;1.23;;
71941;SDS011;59997;53.300;-6.260;2022-12-08T16:05:21;8.80;;;1.27;;
71941;SDS011;59997;53.300;-6.260;2022-12-08T16:07:48;5.78;;;1.20;;
71941;SDS011;59997;53.300;-6.260;2022-12-08T16:10:16;9.97;;;1.30;;
71941;SDS011;59997;53.300;-6.260;2022-12-08T16:12:43;6.53;;;1.20;;
71941;SDS011;59997;53.300;-6.260;2022-12-08T16:15:28;9.30;;;1.77;;
71941;SDS011;59997;53.300;-6.260;2022-12-08T16:17:55;11.55;;;2.25;;
71941;SDS011;59997;53.300;-6.260;2022-12-08T16:20:22;19.95;;;4.28;;
71941;SDS011;59997;53.300;-6.260;2022-12-08T16:22:48;12.57;;;3.53;;
71941;SDS011;59997;53.300;-6.260;2022-12-08T16:25:14;12.63;;;3.08;;
71941;SDS011;59997;53.300;-6.260;2022-12-08T16:27:40;12.55;;;4.22;;
71941;SDS011;59997;53.300;-6.260;2022-12-08T16:30:07;16.30;;;5.50;;
71941;SDS011;59997;53.300;-6.260;2022-12-08T16:32:37;23.10;;;9.25;;
71941;SDS011;59997;53.300;-6.260;2022-12-08T16:35:03;18.93;;;8.13;;
71941;SDS011;59997;53.300;-6.260;2022-12-08T16:37:28;27.23;;;10.60;;
71941;SDS011;59997;53.300;-6.260;2022-12-08T16:39:54;25.47;;;9.77;;
71941;SDS011;59997;53.300;-6.260;2022-12-08T16:42:22;33.05;;;12.13;;
71941;SDS011;59997;53.300;-6.260;2022-12-08T16:47:31;31.77;;;10.97;;
71941;SDS011;59997;53.300;-6.260;2022-12-08T16:49:57;21.57;;;9.23;;
71941;SDS011;59997;53.300;-6.260;2022-12-08T16:52:23;24.30;;;8.32;;
71941;SDS011;59997;53.300;-6.260;2022-12-08T16:54:48;20.65;;;9.30;;
71941;SDS011;59997;53.300;-6.260;2022-12-08T16:57:14;24.50;;;11.67;;